In Rescue
 
Open Full Screen Window  High Contrast Mode
Wind Gusting 00 knots
03
August 09, 2020 5:45 PM CDT
Weather Information
Wind Direction
  270 °
Wind Speed
  03 kt (3 mph)
Wind Gust
  00 kt (0 mph)
Altimeter
29.81 in
Visibility
---
Temperature
24° C
75° F
Dewpoint
20° C
68° F
Humidity
78%
1hr Rain Fall
00.00 in.
24hr Rain Fall
00.00 in.
Sky Condition
Broken @ 3,800 ft
Scattered @ 2,500 ft
Scattered @ 1,900 ft

METAR KMZH 092245Z AUTO 27003KT SCT019 SCT025 BKN038 24/20 A2981 RMK AO2 PWINO

FAA Disclaimer: The data displayed is for advisory purposes only and is not to be used for flight planning or operations.